sensor_id;sensor_type;location;lat;lon;timestamp;pressure;altitude;pressure_sealevel;temperature;humidity
71907;BME280;59781;52.090;5.030;2023-01-28T00:00:34;102946.31;;;3.43;81.82
71907;BME280;59781;52.090;5.030;2023-01-28T00:03:01;102958.59;;;3.29;81.91
71907;BME280;59781;52.090;5.030;2023-01-28T00:05:27;102958.78;;;3.43;81.87
71907;BME280;59781;52.090;5.030;2023-01-28T00:07:54;102960.50;;;3.44;83.53
71907;BME280;59781;52.090;5.030;2023-01-28T00:10:22;102955.41;;;3.39;82.45
71907;BME280;59781;52.090;5.030;2023-01-28T00:12:47;102955.56;;;3.55;81.80
71907;BME280;59781;52.090;5.030;2023-01-28T00:15:15;102970.81;;;3.33;82.68
71907;BME280;59781;52.090;5.030;2023-01-28T00:17:41;102961.94;;;3.32;81.01
71907;BME280;59781;52.090;5.030;2023-01-28T00:20:07;102965.25;;;3.56;81.91
71907;BME280;59781;52.090;5.030;2023-01-28T00:22:33;102961.34;;;3.63;79.72
71907;BME280;59781;52.090;5.030;2023-01-28T00:24:58;102960.50;;;3.44;81.71
71907;BME280;59781;52.090;5.030;2023-01-28T00:27:24;102949.19;;;3.58;81.20
71907;BME280;59781;52.090;5.030;2023-01-28T00:29:50;102954.16;;;3.65;80.74
71907;BME280;59781;52.090;5.030;2023-01-28T00:32:15;102955.69;;;3.52;80.93
71907;BME280;59781;52.090;5.030;2023-01-28T00:34:41;102958.13;;;3.57;82.09
71907;BME280;59781;52.090;5.030;2023-01-28T00:37:07;102964.09;;;3.62;81.84
71907;BME280;59781;52.090;5.030;2023-01-28T00:39:33;102953.16;;;3.68;81.24
71907;BME280;59781;52.090;5.030;2023-01-28T00:41:59;102958.84;;;3.41;81.45
71907;BME280;59781;52.090;5.030;2023-01-28T00:44:25;102949.56;;;3.50;81.60
71907;BME280;59781;52.090;5.030;2023-01-28T00:46:51;102953.16;;;3.68;80.34
71907;BME280;59781;52.090;5.030;2023-01-28T00:49:21;102957.78;;;3.27;82.81
71907;BME280;59781;52.090;5.030;2023-01-28T00:51:47;102956.63;;;3.51;80.53
71907;BME280;59781;52.090;5.030;2023-01-28T00:54:14;102955.72;;;3.69;80.66
71907;BME280;59781;52.090;5.030;2023-01-28T00:56:40;102962.59;;;3.56;81.09
71907;BME280;59781;52.090;5.030;2023-01-28T00:59:06;102952.81;;;3.38;82.08
71907;BME280;59781;52.090;5.030;2023-01-28T01:01:32;102953.16;;;3.49;82.03
71907;BME280;59781;52.090;5.030;2023-01-28T01:03:57;102956.53;;;3.34;82.66
71907;BME280;59781;52.090;5.030;2023-01-28T01:06:35;102951.72;;;3.61;82.60
71907;BME280;59781;52.090;5.030;2023-01-28T01:09:06;102957.28;;;3.56;80.32
71907;BME280;59781;52.090;5.030;2023-01-28T01:11:34;102956.06;;;3.44;82.00
71907;BME280;59781;52.090;5.030;2023-01-28T01:14:00;102954.81;;;3.33;82.95
71907;BME280;59781;52.090;5.030;2023-01-28T01:16:30;102960.28;;;3.49;82.09
71907;BME280;59781;52.090;5.030;2023-01-28T01:18:58;102953.88;;;3.34;81.67
71907;BME280;59781;52.090;5.030;2023-01-28T01:21:27;102955.63;;;3.35;81.93
71907;BME280;59781;52.090;5.030;2023-01-28T01:23:54;102951.72;;;3.61;81.15
71907;BME280;59781;52.090;5.030;2023-01-28T01:26:20;102951.91;;;3.75;81.28
71907;BME280;59781;52.090;5.030;2023-01-28T01:28:47;102953.59;;;3.59;82.61
71907;BME280;59781;52.090;5.030;2023-01-28T01:31:14;102955.56;;;3.55;81.30
71907;BME280;59781;52.090;5.030;2023-01-28T01:33:44;102962.53;;;3.58;81.36
71907;BME280;59781;52.090;5.030;2023-01-28T01:36:13;102954.09;;;3.67;80.05
71907;BME280;59781;52.090;5.030;2023-01-28T01:38:41;102953.69;;;3.38;81.77
71907;BME280;59781;52.090;5.030;2023-01-28T01:41:30;102956.97;;;3.62;81.17
71907;BME280;59781;52.090;5.030;2023-01-28T01:44:02;102956.50;;;3.71;81.23
71907;BME280;59781;52.090;5.030;2023-01-28T01:46:43;102958.94;;;3.40;82.02
71907;BME280;59781;52.090;5.030;2023-01-28T01:49:33;102962.38;;;3.23;82.00
71907;BME280;59781;52.090;5.030;2023-01-28T01:52:04;102968.38;;;3.47;81.12
71907;BME280;59781;52.090;5.030;2023-01-28T01:54:38;102961.75;;;3.56;80.70
71907;BME280;59781;52.090;5.030;2023-01-28T01:57:10;102969.16;;;3.49;81.49
71907;BME280;59781;52.090;5.030;2023-01-28T01:59:42;102964.25;;;3.40;82.01
71907;BME280;59781;52.090;5.030;2023-01-28T02:02:10;102963.59;;;3.54;80.43
71907;BME280;59781;52.090;5.030;2023-01-28T02:04:42;102953.94;;;3.51;79.71
71907;BME280;59781;52.090;5.030;2023-01-28T02:07:12;102955.84;;;3.11;80.75
71907;BME280;59781;52.090;5.030;2023-01-28T02:09:40;102959.28;;;3.13;80.73
71907;BME280;59781;52.090;5.030;2023-01-28T02:12:29;102960.03;;;3.17;80.32
71907;BME280;59781;52.090;5.030;2023-01-28T02:17:35;102960.53;;;3.25;78.47
71907;BME280;59781;52.090;5.030;2023-01-28T02:20:10;102961.59;;;3.21;80.14
71907;BME280;59781;52.090;5.030;2023-01-28T02:31:23;102971.81;;;3.30;78.68
71907;BME280;59781;52.090;5.030;2023-01-28T02:34:06;102978.31;;;3.25;78.44
71907;BME280;59781;52.090;5.030;2023-01-28T02:36:50;102982.63;;;3.46;78.30
71907;BME280;59781;52.090;5.030;2023-01-28T02:39:57;102987.72;;;3.51;77.07
71907;BME280;59781;52.090;5.030;2023-01-28T02:42:31;102986.31;;;3.25;77.58
71907;BME280;59781;52.090;5.030;2023-01-28T02:45:01;102983.84;;;3.20;77.39
71907;BME280;59781;52.090;5.030;2023-01-28T02:47:27;102983.63;;;3.25;78.87
71907;BME280;59781;52.090;5.030;2023-01-28T02:50:15;102976.97;;;3.14;78.70
71907;BME280;59781;52.090;5.030;2023-01-28T02:52:53;102973.97;;;3.41;77.17
71907;BME280;59781;52.090;5.030;2023-01-28T02:56:16;102968.56;;;3.24;78.31
71907;BME280;59781;52.090;5.030;2023-01-28T03:05:16;102967.63;;;3.62;74.68
71907;BME280;59781;52.090;5.030;2023-01-28T03:07:48;102963.09;;;3.08;77.39
71907;BME280;59781;52.090;5.030;2023-01-28T03:10:19;102970.75;;;3.34;76.31
71907;BME280;59781;52.090;5.030;2023-01-28T03:12:53;102960.47;;;3.27;75.93
71907;BME280;59781;52.090;5.030;2023-01-28T03:15:47;102966.91;;;3.21;75.92
71907;BME280;59781;52.090;5.030;2023-01-28T03:18:37;102960.22;;;3.12;75.90
71907;BME280;59781;52.090;5.030;2023-01-28T03:21:30;102962.94;;;3.11;76.81
71907;BME280;59781;52.090;5.030;2023-01-28T03:24:25;102968.06;;;2.97;76.56
71907;BME280;59781;52.090;5.030;2023-01-28T03:27:25;102964.63;;;3.32;75.96
71907;BME280;59781;52.090;5.030;2023-01-28T03:30:22;102970.75;;;3.15;76.77
71907;BME280;59781;52.090;5.030;2023-01-28T03:33:31;102970.50;;;3.58;75.00
71907;BME280;59781;52.090;5.030;2023-01-28T03:36:19;102956.97;;;3.43;74.52
71907;BME280;59781;52.090;5.030;2023-01-28T03:39:05;102963.41;;;3.39;76.68
71907;BME280;59781;52.090;5.030;2023-01-28T03:41:30;102967.50;;;3.47;74.70
71907;BME280;59781;52.090;5.030;2023-01-28T03:43:58;102967.53;;;2.88;76.04
71907;BME280;59781;52.090;5.030;2023-01-28T03:46:44;102965.00;;;3.25;75.96
71907;BME280;59781;52.090;5.030;2023-01-28T03:49:10;102966.06;;;3.21;76.23
71907;BME280;59781;52.090;5.030;2023-01-28T03:51:36;102955.56;;;3.36;76.32
71907;BME280;59781;52.090;5.030;2023-01-28T03:54:02;102963.31;;;3.22;75.65
71907;BME280;59781;52.090;5.030;2023-01-28T03:56:28;102961.44;;;3.24;75.80
71907;BME280;59781;52.090;5.030;2023-01-28T03:58:58;102971.66;;;3.33;75.43
71907;BME280;59781;52.090;5.030;2023-01-28T04:01:23;102980.09;;;3.24;75.60
71907;BME280;59781;52.090;5.030;2023-01-28T04:03:50;102977.84;;;2.96;76.34
71907;BME280;59781;52.090;5.030;2023-01-28T04:06:25;102978.34;;;3.23;76.71
71907;BME280;59781;52.090;5.030;2023-01-28T04:09:15;102974.28;;;3.35;76.63
71907;BME280;59781;52.090;5.030;2023-01-28T04:11:53;102986.66;;;3.17;75.67
71907;BME280;59781;52.090;5.030;2023-01-28T04:14:29;102977.94;;;3.32;74.44
71907;BME280;59781;52.090;5.030;2023-01-28T04:17:06;102982.75;;;3.24;75.79
71907;BME280;59781;52.090;5.030;2023-01-28T04:19:35;102985.91;;;3.13;74.84
71907;BME280;59781;52.090;5.030;2023-01-28T04:22:07;102996.34;;;3.18;74.97
71907;BME280;59781;52.090;5.030;2023-01-28T04:24:36;103010.00;;;3.10;76.53
71907;BME280;59781;52.090;5.030;2023-01-28T04:27:01;103007.72;;;3.22;76.62
71907;BME280;59781;52.090;5.030;2023-01-28T04:29:27;102999.59;;;3.43;76.56
71907;BME280;59781;52.090;5.030;2023-01-28T04:31:58;103005.84;;;3.05;77.35
71907;BME280;59781;52.090;5.030;2023-01-28T04:34:44;103013.97;;;3.21;76.57
71907;BME280;59781;52.090;5.030;2023-01-28T04:37:22;103008.41;;;3.45;75.66
71907;BME280;59781;52.090;5.030;2023-01-28T04:40:07;103004.09;;;3.04;75.99
71907;BME280;59781;52.090;5.030;2023-01-28T04:42:41;103004.28;;;3.20;75.43
71907;BME280;59781;52.090;5.030;2023-01-28T04:45:22;103001.44;;;3.04;76.59
71907;BME280;59781;52.090;5.030;2023-01-28T04:48:09;102997.03;;;3.03;77.27
71907;BME280;59781;52.090;5.030;2023-01-28T04:50:44;102985.91;;;3.13;76.31
71907;BME280;59781;52.090;5.030;2023-01-28T04:53:32;102989.59;;;3.30;74.78
71907;BME280;59781;52.090;5.030;2023-01-28T04:56:05;102987.22;;;3.05;76.63
71907;BME280;59781;52.090;5.030;2023-01-28T04:58:33;102988.00;;;3.07;77.10
71907;BME280;59781;52.090;5.030;2023-01-28T05:01:03;102994.13;;;3.09;76.56
71907;BME280;59781;52.090;5.030;2023-01-28T05:03:29;102995.13;;;3.06;77.09
71907;BME280;59781;52.090;5.030;2023-01-28T05:05:55;102987.03;;;2.89;78.17
71907;BME280;59781;52.090;5.030;2023-01-28T05:08:38;102989.91;;;3.03;77.02
71907;BME280;59781;52.090;5.030;2023-01-28T05:11:05;102981.44;;;2.95;77.21
71907;BME280;59781;52.090;5.030;2023-01-28T05:13:32;102995.47;;;2.99;77.91
71907;BME280;59781;52.090;5.030;2023-01-28T05:15:58;102990.28;;;3.14;76.56
71907;BME280;59781;52.090;5.030;2023-01-28T05:18:24;102993.63;;;2.80;76.10
71907;BME280;59781;52.090;5.030;2023-01-28T05:21:02;102997.78;;;3.06;76.14
71907;BME280;59781;52.090;5.030;2023-01-28T05:23:29;103003.72;;;2.93;76.76
71907;BME280;59781;52.090;5.030;2023-01-28T05:25:57;102996.94;;;3.06;75.73
71907;BME280;59781;52.090;5.030;2023-01-28T05:28:23;102995.56;;;3.16;75.35
71907;BME280;59781;52.090;5.030;2023-01-28T05:30:49;102998.16;;;2.78;77.23
71907;BME280;59781;52.090;5.030;2023-01-28T05:33:14;102997.41;;;2.95;78.36
71907;BME280;59781;52.090;5.030;2023-01-28T05:35:41;102996.28;;;2.80;77.14
71907;BME280;59781;52.090;5.030;2023-01-28T05:38:07;102999.47;;;2.88;77.52
71907;BME280;59781;52.090;5.030;2023-01-28T05:40:34;102995.09;;;2.87;77.99
71907;BME280;59781;52.090;5.030;2023-01-28T05:42:59;102987.97;;;2.88;78.39
71907;BME280;59781;52.090;5.030;2023-01-28T05:45:36;102986.34;;;2.84;78.92
71907;BME280;59781;52.090;5.030;2023-01-28T05:48:06;102989.16;;;2.81;78.18
71907;BME280;59781;52.090;5.030;2023-01-28T05:50:58;102983.50;;;2.88;78.75
71907;BME280;59781;52.090;5.030;2023-01-28T05:53:33;102983.19;;;2.76;80.10
71907;BME280;59781;52.090;5.030;2023-01-28T05:55:59;102991.75;;;2.82;79.00
71907;BME280;59781;52.090;5.030;2023-01-28T05:58:25;102986.25;;;2.87;78.07
71907;BME280;59781;52.090;5.030;2023-01-28T06:00:55;102990.63;;;2.88;78.92
71907;BME280;59781;52.090;5.030;2023-01-28T06:03:26;102993.78;;;2.77;79.43
71907;BME280;59781;52.090;5.030;2023-01-28T06:05:52;102994.16;;;2.88;79.61
71907;BME280;59781;52.090;5.030;2023-01-28T06:08:18;102997.84;;;2.66;80.22
71907;BME280;59781;52.090;5.030;2023-01-28T06:10:43;102988.56;;;2.74;79.57
71907;BME280;59781;52.090;5.030;2023-01-28T06:13:10;102993.69;;;2.79;79.71
71907;BME280;59781;52.090;5.030;2023-01-28T06:15:54;102997.56;;;2.72;79.83
71907;BME280;59781;52.090;5.030;2023-01-28T06:18:26;102992.31;;;2.70;78.87
71907;BME280;59781;52.090;5.030;2023-01-28T06:20:52;102990.09;;;2.80;77.82
71907;BME280;59781;52.090;5.030;2023-01-28T06:23:18;102981.19;;;2.81;78.67
71907;BME280;59781;52.090;5.030;2023-01-28T06:25:44;102989.34;;;2.97;76.91
71907;BME280;59781;52.090;5.030;2023-01-28T06:28:11;103000.94;;;2.96;77.56
71907;BME280;59781;52.090;5.030;2023-01-28T06:30:37;103000.94;;;2.96;77.26
71907;BME280;59781;52.090;5.030;2023-01-28T06:33:03;103006.59;;;2.88;77.48
71907;BME280;59781;52.090;5.030;2023-01-28T06:35:28;103006.41;;;3.11;77.46
71907;BME280;59781;52.090;5.030;2023-01-28T06:37:54;103007.25;;;2.93;78.17
71907;BME280;59781;52.090;5.030;2023-01-28T06:40:20;103007.38;;;2.90;77.26
71907;BME280;59781;52.090;5.030;2023-01-28T06:42:50;103012.72;;;2.90;77.61
71907;BME280;59781;52.090;5.030;2023-01-28T06:45:16;103018.22;;;3.06;77.64
71907;BME280;59781;52.090;5.030;2023-01-28T06:47:41;103013.66;;;2.89;78.05
71907;BME280;59781;52.090;5.030;2023-01-28T06:50:07;103021.09;;;3.20;77.32
71907;BME280;59781;52.090;5.030;2023-01-28T06:52:34;103017.78;;;2.96;78.15
71907;BME280;59781;52.090;5.030;2023-01-28T06:54:59;103012.63;;;2.92;78.39
71907;BME280;59781;52.090;5.030;2023-01-28T06:57:26;103027.88;;;2.88;77.15
71907;BME280;59781;52.090;5.030;2023-01-28T06:59:51;103028.28;;;2.79;76.84
71907;BME280;59781;52.090;5.030;2023-01-28T07:02:17;103026.13;;;3.07;76.63
71907;BME280;59781;52.090;5.030;2023-01-28T07:04:43;103023.66;;;3.03;77.13
71907;BME280;59781;52.090;5.030;2023-01-28T07:07:08;103029.41;;;2.94;77.93
71907;BME280;59781;52.090;5.030;2023-01-28T07:09:34;103019.75;;;2.91;78.17
71907;BME280;59781;52.090;5.030;2023-01-28T07:12:00;103018.41;;;3.01;77.56
71907;BME280;59781;52.090;5.030;2023-01-28T07:14:30;103016.34;;;3.08;76.78
71907;BME280;59781;52.090;5.030;2023-01-28T07:16:56;103022.16;;;2.97;78.60
71907;BME280;59781;52.090;5.030;2023-01-28T07:19:21;103036.41;;;2.96;77.19
71907;BME280;59781;52.090;5.030;2023-01-28T07:21:47;103046.44;;;2.69;78.08
71907;BME280;59781;52.090;5.030;2023-01-28T07:24:13;103039.09;;;2.95;77.03
71907;BME280;59781;52.090;5.030;2023-01-28T07:26:38;103034.13;;;3.07;76.26
71907;BME280;59781;52.090;5.030;2023-01-28T07:29:04;103037.03;;;3.01;76.25
71907;BME280;59781;52.090;5.030;2023-01-28T07:31:30;103024.84;;;2.77;77.30
71907;BME280;59781;52.090;5.030;2023-01-28T07:33:55;103040.25;;;2.69;78.94
71907;BME280;59781;52.090;5.030;2023-01-28T07:36:21;103042.72;;;2.73;78.75
71907;BME280;59781;52.090;5.030;2023-01-28T07:38:47;103044.09;;;2.82;79.12
71907;BME280;59781;52.090;5.030;2023-01-28T07:41:12;103038.13;;;2.77;78.79
71907;BME280;59781;52.090;5.030;2023-01-28T07:43:38;103046.16;;;3.16;78.33
71907;BME280;59781;52.090;5.030;2023-01-28T07:46:04;103051.47;;;3.16;76.75
71907;BME280;59781;52.090;5.030;2023-01-28T07:48:30;103060.84;;;3.04;75.95
71907;BME280;59781;52.090;5.030;2023-01-28T07:50:58;103053.69;;;3.06;75.84
71907;BME280;59781;52.090;5.030;2023-01-28T07:53:24;103058.41;;;2.79;76.45
71907;BME280;59781;52.090;5.030;2023-01-28T07:55:50;103054.19;;;2.75;76.93
71907;BME280;59781;52.090;5.030;2023-01-28T07:58:16;103053.31;;;2.95;76.58
71907;BME280;59781;52.090;5.030;2023-01-28T08:00:41;103055.34;;;2.88;77.29
71907;BME280;59781;52.090;5.030;2023-01-28T08:03:14;103062.19;;;2.94;78.16
71907;BME280;59781;52.090;5.030;2023-01-28T08:05:44;103060.53;;;2.92;78.22
71907;BME280;59781;52.090;5.030;2023-01-28T08:08:12;103053.56;;;2.69;79.10
71907;BME280;59781;52.090;5.030;2023-01-28T08:10:39;103062.81;;;2.80;79.19
71907;BME280;59781;52.090;5.030;2023-01-28T08:13:06;103056.09;;;2.72;78.88
71907;BME280;59781;52.090;5.030;2023-01-28T08:15:32;103061.72;;;2.84;78.79
71907;BME280;59781;52.090;5.030;2023-01-28T08:17:59;103062.88;;;2.79;79.62
71907;BME280;59781;52.090;5.030;2023-01-28T08:20:27;103076.91;;;2.82;78.42
71907;BME280;59781;52.090;5.030;2023-01-28T08:23:06;103071.56;;;3.23;77.06
71907;BME280;59781;52.090;5.030;2023-01-28T08:25:43;103068.28;;;2.98;77.46
71907;BME280;59781;52.090;5.030;2023-01-28T08:28:11;103074.31;;;2.81;78.82
71907;BME280;59781;52.090;5.030;2023-01-28T08:30:38;103076.31;;;2.76;77.76
71907;BME280;59781;52.090;5.030;2023-01-28T08:33:09;103082.44;;;2.78;77.14
71907;BME280;59781;52.090;5.030;2023-01-28T08:35:36;103076.38;;;2.95;75.55
71907;BME280;59781;52.090;5.030;2023-01-28T08:38:03;103072.31;;;3.06;75.13
71907;BME280;59781;52.090;5.030;2023-01-28T08:40:31;103076.78;;;3.06;74.72
71907;BME280;59781;52.090;5.030;2023-01-28T08:42:58;103086.09;;;2.96;75.32
71907;BME280;59781;52.090;5.030;2023-01-28T08:45:26;103092.69;;;2.87;75.60
71907;BME280;59781;52.090;5.030;2023-01-28T08:47:58;103097.22;;;3.05;74.50
71907;BME280;59781;52.090;5.030;2023-01-28T08:50:32;103098.31;;;3.20;74.47
71907;BME280;59781;52.090;5.030;2023-01-28T08:53:02;103097.31;;;3.23;74.46
71907;BME280;59781;52.090;5.030;2023-01-28T08:55:33;103102.19;;;2.72;75.30
71907;BME280;59781;52.090;5.030;2023-01-28T08:58:05;103094.13;;;2.94;74.55
71907;BME280;59781;52.090;5.030;2023-01-28T09:00:35;103089.72;;;3.13;74.86
71907;BME280;59781;52.090;5.030;2023-01-28T09:03:01;103090.06;;;3.26;72.73
71907;BME280;59781;52.090;5.030;2023-01-28T09:05:27;103085.13;;;3.37;72.72
71907;BME280;59781;52.090;5.030;2023-01-28T09:07:54;103095.06;;;2.93;74.52
71907;BME280;59781;52.090;5.030;2023-01-28T09:10:20;103091.47;;;2.74;74.81
71907;BME280;59781;52.090;5.030;2023-01-28T09:12:46;103095.91;;;4.82;68.09
71907;BME280;59781;52.090;5.030;2023-01-28T09:15:12;103092.28;;;4.66;66.88
71907;BME280;59781;52.090;5.030;2023-01-28T09:17:38;103101.53;;;5.10;65.28
71907;BME280;59781;52.090;5.030;2023-01-28T09:20:05;103099.19;;;4.52;67.07
71907;BME280;59781;52.090;5.030;2023-01-28T09:22:32;103115.31;;;4.49;66.49
71907;BME280;59781;52.090;5.030;2023-01-28T09:24:58;103101.91;;;5.20;64.67
71907;BME280;59781;52.090;5.030;2023-01-28T09:27:23;103119.63;;;5.38;64.99
71907;BME280;59781;52.090;5.030;2023-01-28T09:29:49;103109.78;;;5.23;63.70
71907;BME280;59781;52.090;5.030;2023-01-28T09:32:15;103119.75;;;5.19;64.58
71907;BME280;59781;52.090;5.030;2023-01-28T09:34:40;103129.31;;;5.90;63.83
71907;BME280;59781;52.090;5.030;2023-01-28T09:37:09;103115.66;;;6.73;61.51
71907;BME280;59781;52.090;5.030;2023-01-28T09:39:36;103109.25;;;7.91;56.97
71907;BME280;59781;52.090;5.030;2023-01-28T09:47:55;103114.44;;;6.79;57.56
71907;BME280;59781;52.090;5.030;2023-01-28T09:50:33;103113.09;;;6.56;59.52
71907;BME280;59781;52.090;5.030;2023-01-28T09:53:21;103105.53;;;6.32;59.29
71907;BME280;59781;52.090;5.030;2023-01-28T09:56:24;103109.06;;;7.09;57.93
71907;BME280;59781;52.090;5.030;2023-01-28T09:59:18;103123.66;;;6.43;58.26
71907;BME280;59781;52.090;5.030;2023-01-28T10:01:53;103128.81;;;6.62;57.51
71907;BME280;59781;52.090;5.030;2023-01-28T10:04:45;103130.66;;;6.92;58.69
71907;BME280;59781;52.090;5.030;2023-01-28T10:08:19;103121.06;;;7.32;56.93
71907;BME280;59781;52.090;5.030;2023-01-28T10:14:25;103131.75;;;6.57;59.12
71907;BME280;59781;52.090;5.030;2023-01-28T10:20:22;103123.72;;;7.32;55.78
71907;BME280;59781;52.090;5.030;2023-01-28T10:25:40;103125.41;;;7.04;56.80
71907;BME280;59781;52.090;5.030;2023-01-28T10:28:25;103117.72;;;6.68;57.35
71907;BME280;59781;52.090;5.030;2023-01-28T10:30:53;103107.75;;;7.44;56.80
71907;BME280;59781;52.090;5.030;2023-01-28T10:33:28;103107.06;;;7.12;56.09
71907;BME280;59781;52.090;5.030;2023-01-28T10:36:00;103113.25;;;6.99;56.21
71907;BME280;59781;52.090;5.030;2023-01-28T10:38:26;103107.59;;;8.17;53.41
71907;BME280;59781;52.090;5.030;2023-01-28T10:41:01;103099.69;;;8.28;52.54
71907;BME280;59781;52.090;5.030;2023-01-28T10:43:34;103104.19;;;7.72;53.92
71907;BME280;59781;52.090;5.030;2023-01-28T10:46:16;103109.31;;;7.48;54.24
71907;BME280;59781;52.090;5.030;2023-01-28T10:49:03;103103.63;;;7.53;54.00
71907;BME280;59781;52.090;5.030;2023-01-28T10:51:40;103102.38;;;7.73;54.53
71907;BME280;59781;52.090;5.030;2023-01-28T10:54:24;103088.59;;;8.20;53.00
71907;BME280;59781;52.090;5.030;2023-01-28T10:56:58;103091.34;;;8.60;53.56
71907;BME280;59781;52.090;5.030;2023-01-28T10:59:29;103084.63;;;8.80;54.10
71907;BME280;59781;52.090;5.030;2023-01-28T11:02:28;103073.53;;;8.72;51.70
71907;BME280;59781;52.090;5.030;2023-01-28T11:05:13;103045.91;;;8.30;51.91
71907;BME280;59781;52.090;5.030;2023-01-28T11:07:42;103047.78;;;9.07;50.80
71907;BME280;59781;52.090;5.030;2023-01-28T11:10:25;103041.34;;;8.45;51.88
71907;BME280;59781;52.090;5.030;2023-01-28T11:13:05;103052.00;;;8.05;53.96
71907;BME280;59781;52.090;5.030;2023-01-28T11:18:52;103027.00;;;8.58;51.25
71907;BME280;59781;52.090;5.030;2023-01-28T11:21:25;103021.34;;;8.09;53.75
71907;BME280;59781;52.090;5.030;2023-01-28T11:24:01;103020.88;;;8.56;52.30
71907;BME280;59781;52.090;5.030;2023-01-28T11:26:34;103014.41;;;8.59;51.70
71907;BME280;59781;52.090;5.030;2023-01-28T11:29:04;103013.34;;;7.54;53.24
71907;BME280;59781;52.090;5.030;2023-01-28T11:31:42;103011.19;;;8.54;52.31
71907;BME280;59781;52.090;5.030;2023-01-28T11:34:16;103002.41;;;9.03;52.60
71907;BME280;59781;52.090;5.030;2023-01-28T11:36:51;102992.06;;;8.58;52.25
71907;BME280;59781;52.090;5.030;2023-01-28T11:39:23;102988.19;;;8.62;52.22
71907;BME280;59781;52.090;5.030;2023-01-28T11:41:51;102991.00;;;8.34;53.04
71907;BME280;59781;52.090;5.030;2023-01-28T11:44:24;102991.50;;;8.41;52.49
71907;BME280;59781;52.090;5.030;2023-01-28T12:07:19;103015.50;;;9.20;50.78
71907;BME280;59781;52.090;5.030;2023-01-28T12:10:03;103007.34;;;9.09;50.82
71907;BME280;59781;52.090;5.030;2023-01-28T12:13:20;103014.94;;;9.40;50.86
71907;BME280;59781;52.090;5.030;2023-01-28T12:18:45;103025.00;;;9.26;51.94
71907;BME280;59781;52.090;5.030;2023-01-28T12:30:35;103041.28;;;8.05;55.76
71907;BME280;59781;52.090;5.030;2023-01-28T12:36:55;103017.66;;;7.42;57.33
71907;BME280;59781;52.090;5.030;2023-01-28T12:48:13;102999.72;;;7.57;58.27
71907;BME280;59781;52.090;5.030;2023-01-28T12:51:07;102990.28;;;7.37;59.58
71907;BME280;59781;52.090;5.030;2023-01-28T12:54:04;102977.22;;;7.59;57.66
71907;BME280;59781;52.090;5.030;2023-01-28T12:56:44;102971.34;;;8.21;56.14
71907;BME280;59781;52.090;5.030;2023-01-28T12:59:23;102972.16;;;7.55;53.43
71907;BME280;59781;52.090;5.030;2023-01-28T13:09:52;102939.16;;;8.33;52.88
71907;BME280;59781;52.090;5.030;2023-01-28T13:12:23;102945.66;;;7.50;54.26
71907;BME280;59781;52.090;5.030;2023-01-28T13:14:50;102952.16;;;8.27;54.91
71907;BME280;59781;52.090;5.030;2023-01-28T13:17:29;102950.09;;;8.30;54.91
71907;BME280;59781;52.090;5.030;2023-01-28T13:19:59;102955.56;;;8.16;55.80
71907;BME280;59781;52.090;5.030;2023-01-28T13:22:34;102952.66;;;7.80;56.97
71907;BME280;59781;52.090;5.030;2023-01-28T13:25:21;102947.44;;;7.91;57.42
71907;BME280;59781;52.090;5.030;2023-01-28T13:28:00;102937.44;;;8.32;55.89
71907;BME280;59781;52.090;5.030;2023-01-28T13:30:32;102933.91;;;7.65;56.29
71907;BME280;59781;52.090;5.030;2023-01-28T13:33:05;102939.13;;;8.21;54.74
71907;BME280;59781;52.090;5.030;2023-01-28T13:35:54;102931.69;;;8.39;54.71
71907;BME280;59781;52.090;5.030;2023-01-28T13:38:21;102937.53;;;7.79;57.27
71907;BME280;59781;52.090;5.030;2023-01-28T13:40:58;102946.03;;;7.58;56.65
71907;BME280;59781;52.090;5.030;2023-01-28T13:46:03;102942.84;;;8.45;54.92
71907;BME280;59781;52.090;5.030;2023-01-28T13:48:50;102943.53;;;7.82;56.11
71907;BME280;59781;52.090;5.030;2023-01-28T13:51:26;102946.97;;;7.57;57.06
71907;BME280;59781;52.090;5.030;2023-01-28T13:53:57;102944.31;;;7.57;58.11
71907;BME280;59781;52.090;5.030;2023-01-28T13:56:35;102939.16;;;7.40;57.05
71907;BME280;59781;52.090;5.030;2023-01-28T13:59:29;102949.81;;;7.13;57.72
71907;BME280;59781;52.090;5.030;2023-01-28T14:05:55;102950.56;;;7.29;58.02
71907;BME280;59781;52.090;5.030;2023-01-28T14:12:20;102961.09;;;7.32;57.54
71907;BME280;59781;52.090;5.030;2023-01-28T14:17:55;102981.88;;;6.86;61.45
71907;BME280;59781;52.090;5.030;2023-01-28T14:20:42;102976.59;;;6.70;61.74
71907;BME280;59781;52.090;5.030;2023-01-28T14:23:18;102976.78;;;6.67;62.48
71907;BME280;59781;52.090;5.030;2023-01-28T14:28:22;102973.16;;;6.38;63.38
71907;BME280;59781;52.090;5.030;2023-01-28T14:31:05;102968.53;;;6.56;63.03
71907;BME280;59781;52.090;5.030;2023-01-28T14:33:37;102961.44;;;6.41;63.46
71907;BME280;59781;52.090;5.030;2023-01-28T14:36:05;102956.41;;;6.50;64.97
71907;BME280;59781;52.090;5.030;2023-01-28T14:38:38;102964.84;;;6.73;63.16
71907;BME280;59781;52.090;5.030;2023-01-28T14:41:08;102954.13;;;6.87;63.10
71907;BME280;59781;52.090;5.030;2023-01-28T14:43:43;102958.72;;;6.71;63.18
71907;BME280;59781;52.090;5.030;2023-01-28T14:49:22;102958.41;;;6.61;64.62
71907;BME280;59781;52.090;5.030;2023-01-28T14:54:58;102974.59;;;6.59;63.92
71907;BME280;59781;52.090;5.030;2023-01-28T14:57:43;102965.94;;;6.54;64.26
71907;BME280;59781;52.090;5.030;2023-01-28T15:00:27;102973.78;;;6.43;64.45
71907;BME280;59781;52.090;5.030;2023-01-28T15:02:54;102981.94;;;6.26;64.93
71907;BME280;59781;52.090;5.030;2023-01-28T15:05:24;102988.38;;;6.38;63.87
71907;BME280;59781;52.090;5.030;2023-01-28T15:07:54;102992.72;;;6.54;62.83
71907;BME280;59781;52.090;5.030;2023-01-28T15:10:30;102993.94;;;6.19;64.96
71907;BME280;59781;52.090;5.030;2023-01-28T15:13:04;102984.66;;;6.10;66.03
71907;BME280;59781;52.090;5.030;2023-01-28T15:15:39;102978.47;;;6.10;65.80
71907;BME280;59781;52.090;5.030;2023-01-28T15:18:19;102984.59;;;5.96;65.98
71907;BME280;59781;52.090;5.030;2023-01-28T15:20:53;102993.38;;;5.98;65.55